Georgetown, SC (29440)

12:01 PM EDT on August 19, 2017 (GMT -0400)
Debordieu | | Change Station
Active Advisory: Heat Advisory

Elev 36 ft 33.38 °N, 79.18 °W | Updated 15 minutes ago

Clear
Clear
93.3 °F
Feels Like 112 °F
N
0.0
Wind Variable Wind from SSW
Gusts 4.0 mph

Today
High -- | Low -- °F
--% Chance of Precip.
Yesterday
High -- | Low -- °F
Precip. -- in
Pressure 29.96 in
Visibility 10.0 miles
Clouds Clear
Heat Index 112 °F
Dew Point 80 °F
Humidity 65%
Rainfall 0.00 in
Snow Depth Not available.
6:42 AM 7:58 PM
Waning Crescent, 6% visible
METAR KGGE 191555Z AUTO 23007KT 10SM CLR 32/26 A2996 RMK AO2
Pressure 29.96 in
Visibility 10.0 miles
Clouds Clear
Heat Index 112 °F
Dew Point 80 °F
Humidity 65%
Rainfall 0.00 in
Snow Depth Not available.
6:42 AM 7:58 PM
Waning Crescent, 6% visible
METAR KGGE 191555Z AUTO 23007KT 10SM CLR 32/26 A2996 RMK AO2

Get Your Daily Forecast Email!

Thanks for signing up!

Be on the lookout for a verification email in your inbox.

You'll start receiving severe weather alerts in your inbox..

×

10-Day Weather Forecast

Almanac

Astronomy

Aug. 19, 2017 Rise Set
Actual Time
Civil Twilight
Nautical Twilight
Astronomical Twilight
Moon
Length of Visible Light
Length of Day
Tomorrow will be .
, % of the Moon is Illuminated

Today's Extremes

State Highs State Lows

Community

WunderPhotos

Category 6

Welcome to Category 6. This is the collective home for Weather Underground's featured writeups by Dr. Jeff Masters (right), Bob Henson (left), Chris Burt, and other regular contributors.

Nearby

Air Quality

  Air Quality AQ Index Pollutant
Not available.

Snow Depth

Station Depth Elevation

Earthquake Activity

City Distance Mag. Time & Date
Minimum magnitude displayed is 2.5.

Coastal Water Temperatures

Place Temperature

Stations

Nearby Weather Stations

Station Location Temp. Windchill Dew Point Humidity Wind Precip. Elev Updated Type
                   

Watches & Warnings

Heat Advisory
Issued: 10:17 AM EDT Aug. 19, 2017 – National Weather Service

... Heat advisory remains in effect until 6 PM EDT this evening...

* heat index values... as high as 107.

* Timing... late morning through afternoon.

* Impacts... the high heat and humidity will increase the risk for
heat exhaustion and even heat stroke if precautionary measures
are not taken.

Precautionary/preparedness actions...

To reduce the risk of heat illness during outdoor work, the
occupational safety and health administration recommends
scheduling frequent rest breaks in shaded or air conditioned
environments.



8